Weather at Buttonville Municipal Airport [CLOSED]

Public forecast

Using degrees Celsius for public forecast. Weather courtesy of forecast.io.

Closest aviation weather report (METAR) to Buttonville Municipal Airport

Closest report is Billy Bishop Toronto City Centre Airport, 14.1 nm (26.2 km) S.

2024/05/25 23:00 (retrieved 11 minutes ago)

CYTZ 252300Z AUTO 08009KT 9SM FEW020 15/13 A2981 RMK SLP096 DENSITY ALT 500FT

Closest aviation forecast (TAF) to Buttonville Municipal Airport

Closest forecast is Billy Bishop Toronto City Centre Airport, 14.1 nm (26.2 km) S.

2024/05/25 20:43 (retrieved 2 hours ago)

TAF CYTZ 251940Z 2520/2620 07012KT P6SM BKN080 TEMPO 2520/2523 3SM -SHRA BKN006 PROB30 2520/2523 VRB20G35KT 1SM +TSRA BR BKN005 OVC050CB FM252300 30008KT P6SM BKN025 TEMPO 2523/2603 P6SM -SHRA BKN015 PROB30 2603/2613 1 1/2SM BR OVC004 FM261600 09012KT P6SM FEW015 RMK FCST BASED ON AUTO OBS NXT FCST BY 260200Z